createdAt,value
2019-02-07T00:01:28.017Z,99347.95
2019-02-07T00:03:57.106Z,99258.04
2019-02-07T00:06:26.283Z,99329.82
2019-02-07T00:08:57.209Z,99323.91
2019-02-07T00:11:29.434Z,99318.86
2019-02-07T00:13:58.810Z,99322.39
2019-02-07T00:16:31.866Z,99310.27
2019-02-07T00:19:00.941Z,99309.73
2019-02-07T00:21:31.296Z,99309.67
2019-02-07T00:24:01.902Z,99306.65
2019-02-07T00:26:31.104Z,99303.66
2019-02-07T00:29:02.813Z,99297.73
2019-02-07T00:31:31.960Z,99288.98
2019-02-07T00:34:01.307Z,99283.11
2019-02-07T00:36:30.653Z,99274.03
2019-02-07T00:38:59.864Z,99267.45
2019-02-07T00:41:28.928Z,99264.89
2019-02-07T00:43:58.159Z,99261.09
2019-02-07T00:46:27.300Z,99260.61
2019-02-07T00:48:56.451Z,99260.59
2019-02-07T00:51:27.226Z,99259.34
2019-02-07T00:53:56.373Z,99260.00
2019-02-07T00:56:25.601Z,99266.25
2019-02-07T00:58:54.775Z,99264.48
2019-02-07T01:01:24.032Z,99263.48
2019-02-07T01:03:54.769Z,99255.16
2019-02-07T01:06:24.033Z,99256.83
2019-02-07T01:08:53.189Z,99255.17
2019-02-07T01:11:22.302Z,99258.05
2019-02-07T01:13:53.672Z,99249.86
2019-02-07T01:16:24.981Z,99243.56
2019-02-07T01:18:54.153Z,99237.86
2019-02-07T01:21:23.313Z,99230.75
2019-02-07T01:23:56.917Z,99229.89
2019-02-07T01:26:26.291Z,99229.28
2019-02-07T01:28:56.688Z,99225.77
2019-02-07T01:31:28.090Z,99211.44
2019-02-07T01:33:57.362Z,99204.33
2019-02-07T01:36:27.647Z,99212.67
2019-02-07T01:38:56.809Z,99210.83
2019-02-07T01:41:27.893Z,99204.84
2019-02-07T01:43:57.060Z,99205.83
2019-02-07T01:46:26.196Z,99187.56
2019-02-07T01:48:55.304Z,99188.98
2019-02-07T01:51:24.473Z,99163.76
2019-02-07T01:53:53.560Z,99161.98
2019-02-07T01:56:26.090Z,99170.95
2019-02-07T01:58:55.290Z,99166.11
2019-02-07T02:01:24.495Z,99164.45
2019-02-07T02:03:54.705Z,99168.05
2019-02-07T02:06:28.803Z,99160.48
2019-02-07T02:08:58.103Z,99158.36
2019-02-07T02:11:28.224Z,99142.50
2019-02-07T02:13:57.400Z,99134.80
2019-02-07T02:16:28.156Z,99139.91
2019-02-07T02:18:57.272Z,99137.52
2019-02-07T02:21:28.440Z,99134.84
2019-02-07T02:23:57.495Z,99131.98
2019-02-07T02:26:26.646Z,99130.61
2019-02-07T02:28:55.783Z,99113.81
2019-02-07T02:31:27.300Z,99118.48
2019-02-07T02:34:00.187Z,99126.44
2019-02-07T02:36:30.827Z,99116.00
2019-02-07T02:38:59.968Z,99102.56
2019-02-07T02:41:29.092Z,99105.34
2019-02-07T02:43:58.214Z,99086.40
2019-02-07T02:46:27.387Z,99100.70
2019-02-07T02:48:56.539Z,99085.27
2019-02-07T02:51:27.631Z,99089.35
2019-02-07T02:53:58.936Z,99085.53
2019-02-07T02:56:28.648Z,99091.83
2019-02-07T02:58:57.727Z,99085.84
2019-02-07T03:01:43.988Z,99061.17
2019-02-07T03:04:35.199Z,99065.40
2019-02-07T03:07:31.813Z,99068.56
2019-02-07T03:10:20.654Z,99058.87
2019-02-07T03:13:09.424Z,99052.12
2019-02-07T03:15:55.877Z,99055.36
2019-02-07T03:18:58.405Z,99057.18
2019-02-07T03:21:50.721Z,99043.59
2019-02-07T03:24:42.242Z,99028.24
2019-02-07T03:27:48.000Z,99025.90
2019-02-07T03:30:42.106Z,98979.78
2019-02-07T03:33:26.841Z,99026.51
2019-02-07T03:36:13.958Z,99030.52
2019-02-07T03:39:16.105Z,99018.95
2019-02-07T03:42:02.730Z,99030.09
2019-02-07T03:44:51.351Z,99019.38
2019-02-07T03:47:48.619Z,99006.73
2019-02-07T03:50:42.646Z,98999.27
2019-02-07T03:53:31.776Z,99005.53
2019-02-07T03:56:32.950Z,98999.49
2019-02-07T03:59:23.827Z,98999.91
2019-02-07T04:02:14.983Z,99021.70
2019-02-07T04:05:09.054Z,99021.12
2019-02-07T04:07:48.391Z,99008.33
2019-02-07T04:10:25.088Z,99002.66
2019-02-07T04:13:14.142Z,98991.94
2019-02-07T04:16:14.395Z,98987.70
2019-02-07T04:19:06.159Z,98996.23
2019-02-07T04:21:59.318Z,98992.70
2019-02-07T04:24:50.481Z,98995.69
2019-02-07T04:27:49.291Z,98994.09
2019-02-07T04:30:39.258Z,98985.94
2019-02-07T04:33:29.595Z,98972.98
2019-02-07T04:36:20.397Z,98975.30
2019-02-07T04:39:20.817Z,98964.67
2019-02-07T04:42:25.863Z,98972.28
2019-02-07T04:45:32.590Z,98976.84
2019-02-07T04:48:14.434Z,98976.31
2019-02-07T04:51:01.484Z,98980.77
2019-02-07T04:54:04.129Z,98972.50
2019-02-07T04:56:55.151Z,98971.34
2019-02-07T04:59:58.360Z,98965.11
2019-02-07T05:02:39.733Z,98956.66
2019-02-07T05:05:27.092Z,98955.22
2019-02-07T05:08:24.033Z,98945.12
2019-02-07T05:11:10.934Z,98944.91
2019-02-07T05:14:04.819Z,98827.37
2019-02-07T05:17:06.386Z,98943.70
2019-02-07T05:20:06.714Z,98945.83
2019-02-07T05:22:46.136Z,98942.23
2019-02-07T05:25:28.050Z,98950.88
2019-02-07T05:28:31.529Z,98944.28
2019-02-07T05:31:16.307Z,98937.16
2019-02-07T05:34:17.550Z,98935.69
2019-02-07T05:37:12.051Z,98936.50
2019-02-07T05:39:58.648Z,98937.09
2019-02-07T05:43:09.666Z,98927.00
2019-02-07T05:46:11.907Z,98930.48
2019-02-07T05:49:02.156Z,98917.34
2019-02-07T05:51:49.959Z,98906.01
2019-02-07T05:54:47.025Z,98900.51
2019-02-07T05:57:35.342Z,98889.55
2019-02-07T06:00:26.822Z,98881.32
2019-02-07T06:03:03.966Z,98870.61
2019-02-07T06:05:53.095Z,98874.65
2019-02-07T06:08:53.419Z,98875.96
2019-02-07T06:11:40.206Z,98878.11
2019-02-07T06:14:29.480Z,98881.86
2019-02-07T06:17:11.157Z,98876.39
2019-02-07T06:19:56.950Z,98875.42
2019-02-07T06:22:42.725Z,98869.74
2019-02-07T06:25:36.862Z,98868.80
2019-02-07T06:28:25.324Z,98868.04
2019-02-07T06:31:04.829Z,98854.05
2019-02-07T06:34:11.188Z,98857.77
2019-02-07T06:36:59.266Z,98860.78
2019-02-07T06:39:35.735Z,98860.23
2019-02-07T06:42:26.608Z,98853.44
2019-02-07T06:45:29.663Z,98851.97
2019-02-07T06:48:23.917Z,98856.55
2019-02-07T06:50:59.436Z,98854.74
2019-02-07T06:53:46.065Z,98848.97
2019-02-07T06:56:32.848Z,98844.27
2019-02-07T06:59:16.248Z,98828.23
2019-02-07T07:02:04.438Z,98830.41
2019-02-07T07:04:51.255Z,98822.45
2019-02-07T07:07:38.657Z,98818.42
2019-02-07T07:10:21.435Z,98840.33
2019-02-07T07:13:16.967Z,98842.63
2019-02-07T07:16:07.209Z,98842.95
2019-02-07T07:18:54.022Z,98840.81
2019-02-07T07:21:42.137Z,98845.39
2019-02-07T07:24:30.221Z,98845.66
2019-02-07T07:27:11.813Z,98847.52
2019-02-07T07:29:53.276Z,98838.92
2019-02-07T07:32:48.794Z,98832.31
2019-02-07T07:35:32.878Z,98833.03
2019-02-07T07:38:17.193Z,98838.06
2019-02-07T07:41:03.780Z,98841.36
2019-02-07T07:43:54.654Z,98834.66
2019-02-07T07:46:43.123Z,98833.03
2019-02-07T07:49:36.496Z,98829.00
2019-02-07T07:52:24.116Z,98823.59
2019-02-07T07:55:12.068Z,98816.05
2019-02-07T07:57:58.763Z,98816.32
2019-02-07T08:00:46.864Z,98825.34
2019-02-07T08:03:40.710Z,98817.95
2019-02-07T08:06:15.622Z,98809.91
2019-02-07T08:09:02.510Z,98813.91
2019-02-07T08:12:03.000Z,98816.14
2019-02-07T08:14:50.683Z,98816.01
2019-02-07T08:17:47.186Z,98810.33
2019-02-07T08:20:27.553Z,98812.16
2019-02-07T08:23:27.890Z,98824.28
2019-02-07T08:26:14.163Z,98819.63
2019-02-07T08:29:08.361Z,98818.63
2019-02-07T08:31:56.399Z,98816.05
2019-02-07T08:34:53.881Z,98824.65
2019-02-07T08:37:54.213Z,98815.35
2019-02-07T08:40:48.402Z,98822.25
2019-02-07T08:43:36.519Z,98830.13
2019-02-07T08:46:37.125Z,98828.86
2019-02-07T08:49:26.626Z,98828.42
2019-02-07T08:52:09.551Z,98832.63
2019-02-07T08:54:50.771Z,98824.31
2019-02-07T08:57:51.102Z,98828.00
2019-02-07T09:00:54.464Z,98831.12
2019-02-07T09:03:45.734Z,98827.10
2019-02-07T09:06:32.685Z,98816.16
2019-02-07T09:09:14.693Z,98822.83
2019-02-07T09:12:02.793Z,98821.49
2019-02-07T09:14:53.618Z,98813.67
2019-02-07T09:17:33.611Z,98818.32
2019-02-07T09:20:33.605Z,98814.96
2019-02-07T09:23:20.214Z,98804.37
2019-02-07T09:26:09.050Z,98798.70
2019-02-07T09:28:57.060Z,98801.64
2019-02-07T09:31:46.098Z,98805.79
2019-02-07T09:34:34.299Z,98808.88
2019-02-07T09:37:22.133Z,98730.25
2019-02-07T09:40:14.001Z,98813.00
2019-02-07T09:43:17.317Z,98808.27
2019-02-07T09:46:11.803Z,98816.48
2019-02-07T09:48:56.393Z,98813.84
2019-02-07T09:52:02.941Z,98803.67
2019-02-07T09:54:40.253Z,98803.19
2019-02-07T09:57:27.652Z,98810.43
2019-02-07T10:00:11.764Z,98804.83
2019-02-07T10:03:03.914Z,98805.63
2019-02-07T10:05:55.027Z,98801.33
2019-02-07T10:08:47.650Z,98803.57
2019-02-07T10:11:27.190Z,98794.42
2019-02-07T10:14:17.943Z,98720.23
2019-02-07T10:17:17.848Z,98800.41
2019-02-07T10:20:18.111Z,98797.55
2019-02-07T10:23:04.729Z,98803.52
2019-02-07T10:25:51.587Z,98799.86
2019-02-07T10:28:44.558Z,98796.17
2019-02-07T10:31:32.680Z,98792.22
2019-02-07T10:34:38.844Z,98795.41
2019-02-07T10:37:20.957Z,98787.38
2019-02-07T10:40:01.478Z,98778.20
2019-02-07T10:43:04.658Z,98780.94
2019-02-07T10:46:04.823Z,98781.68
2019-02-07T10:48:51.185Z,98785.66
2019-02-07T10:51:48.207Z,98780.41
2019-02-07T10:54:39.019Z,98786.81
2019-02-07T10:57:45.172Z,98789.49
2019-02-07T11:00:43.602Z,98787.66
2019-02-07T11:03:40.560Z,98786.42
2019-02-07T11:06:28.614Z,98780.47
2019-02-07T11:09:19.386Z,98768.84
2019-02-07T11:12:10.512Z,98765.65
2019-02-07T11:15:07.722Z,98760.88
2019-02-07T11:18:03.448Z,98770.18
2019-02-07T11:20:51.451Z,98772.61
2019-02-07T11:23:32.524Z,98758.59
2019-02-07T11:26:19.360Z,98766.97
2019-02-07T11:29:12.897Z,98757.89
2019-02-07T11:31:54.475Z,98760.55
2019-02-07T11:34:41.299Z,98763.64
2019-02-07T11:37:39.587Z,98769.16
2019-02-07T11:40:30.110Z,98765.66
2019-02-07T11:43:21.129Z,98764.34
2019-02-07T11:46:14.902Z,98771.17
2019-02-07T11:49:07.029Z,98776.19
2019-02-07T11:51:54.310Z,98765.91
2019-02-07T11:54:41.134Z,98776.20
2019-02-07T11:57:32.226Z,98775.50
2019-02-07T12:00:20.364Z,98783.49
2019-02-07T12:03:17.619Z,98785.74
2019-02-07T12:06:17.584Z,98780.97
2019-02-07T12:09:20.671Z,98777.05
2019-02-07T12:12:14.618Z,98774.51
2019-02-07T12:15:05.714Z,98766.73
2019-02-07T12:17:52.378Z,98758.97
2019-02-07T12:20:46.641Z,98756.31
2019-02-07T12:23:43.236Z,98775.24
2019-02-07T12:26:49.183Z,98786.38
2019-02-07T12:29:34.710Z,98785.67
2019-02-07T12:32:21.787Z,98781.86
2019-02-07T12:35:18.750Z,98780.16
2019-02-07T12:38:02.427Z,98773.27
2019-02-07T12:40:52.954Z,98762.95
2019-02-07T12:43:56.148Z,98758.87
2019-02-07T12:46:51.609Z,98746.25
2019-02-07T12:49:45.771Z,98745.39
2019-02-07T12:52:36.539Z,98747.38
2019-02-07T12:55:28.577Z,98749.37
2019-02-07T12:58:15.356Z,98749.88
2019-02-07T13:01:06.877Z,98739.77
2019-02-07T13:03:53.610Z,98738.41
2019-02-07T13:06:40.164Z,98740.47
2019-02-07T13:09:21.998Z,98749.17
2019-02-07T13:12:09.248Z,98749.76
2019-02-07T13:14:57.546Z,98752.43
2019-02-07T13:17:35.045Z,98754.64
2019-02-07T13:20:23.320Z,98763.38
2019-02-07T13:23:10.610Z,98759.19
2019-02-07T13:25:49.098Z,98764.39
2019-02-07T13:28:44.077Z,98757.50
2019-02-07T13:31:25.430Z,98758.67
2019-02-07T13:34:29.146Z,98767.06
2019-02-07T13:37:15.954Z,98778.56
2019-02-07T13:40:06.789Z,98780.97
2019-02-07T13:42:53.371Z,98784.36
2019-02-07T13:45:40.076Z,98786.38
2019-02-07T13:48:26.066Z,98785.16
2019-02-07T13:51:12.894Z,98785.04
2019-02-07T13:53:50.844Z,98786.51
2019-02-07T13:56:36.069Z,98788.56
2019-02-07T13:59:23.147Z,98786.63
2019-02-07T14:02:16.243Z,98779.70
2019-02-07T14:05:03.023Z,98799.33
2019-02-07T14:07:53.363Z,98794.30
2019-02-07T14:10:41.035Z,98791.09
2019-02-07T14:13:44.375Z,98779.69
2019-02-07T14:16:35.256Z,98763.39
2019-02-07T14:19:25.552Z,98782.37
2019-02-07T14:22:26.077Z,98788.15
2019-02-07T14:25:15.938Z,98793.81
2019-02-07T14:28:19.051Z,98792.91
2019-02-07T14:31:06.263Z,98792.81
2019-02-07T14:34:02.327Z,98796.63
2019-02-07T14:37:07.223Z,98798.36
2019-02-07T14:39:53.520Z,98794.42
2019-02-07T14:42:44.646Z,98805.08
2019-02-07T14:45:39.109Z,98805.45
2019-02-07T14:48:10.247Z,98806.63
2019-02-07T14:50:42.615Z,98813.95
2019-02-07T14:53:11.813Z,98807.71
2019-02-07T14:55:43.126Z,98815.38
2019-02-07T14:58:12.326Z,98812.52
2019-02-07T15:00:43.323Z,98817.95
2019-02-07T15:03:14.070Z,98819.85
2019-02-07T15:05:47.442Z,98822.19
2019-02-07T15:08:37.033Z,98818.54
2019-02-07T15:11:06.439Z,98815.73
2019-02-07T15:13:35.542Z,98827.43
2019-02-07T15:16:11.700Z,98824.17
2019-02-07T15:18:40.864Z,98830.69
2019-02-07T15:21:10.192Z,98832.77
2019-02-07T15:23:40.944Z,98830.66
2019-02-07T15:26:12.845Z,98835.62
2019-02-07T15:28:42.732Z,98835.35
2019-02-07T15:31:19.810Z,98830.10
2019-02-07T15:33:51.157Z,98833.80
2019-02-07T15:36:20.263Z,98834.66
2019-02-07T15:38:50.469Z,98835.94
2019-02-07T15:41:24.278Z,98828.83
2019-02-07T15:43:54.985Z,98834.70
2019-02-07T15:46:24.705Z,98834.06
2019-02-07T15:48:55.723Z,98830.02
2019-02-07T15:51:25.525Z,98828.72
2019-02-07T15:53:54.955Z,98827.16
2019-02-07T15:56:28.662Z,98821.03
2019-02-07T15:59:15.946Z,98822.35
2019-02-07T16:01:53.496Z,98817.33
2019-02-07T16:04:28.873Z,98812.50
2019-02-07T16:07:01.919Z,98812.30
2019-02-07T16:09:31.098Z,98818.19
2019-02-07T16:12:02.159Z,98817.12
2019-02-07T16:14:31.437Z,98828.75
2019-02-07T16:17:01.973Z,98840.86
2019-02-07T16:19:31.128Z,98838.12
2019-02-07T16:22:00.196Z,98846.39
2019-02-07T16:24:29.271Z,98850.22
2019-02-07T16:26:58.353Z,98853.70
2019-02-07T16:29:27.429Z,98868.41
2019-02-07T16:31:56.818Z,98865.91
2019-02-07T16:34:31.814Z,98860.17
2019-02-07T16:37:02.116Z,98861.95
2019-02-07T16:39:31.301Z,98858.83
2019-02-07T16:42:06.164Z,98860.84
2019-02-07T16:44:33.224Z,98858.50
2019-02-07T16:47:03.742Z,98866.06
2019-02-07T16:49:32.797Z,98871.90
2019-02-07T16:52:01.898Z,98872.21
2019-02-07T16:54:30.968Z,98876.62
2019-02-07T16:57:00.061Z,98878.52
2019-02-07T16:59:29.472Z,98882.30
2019-02-07T17:01:58.595Z,98883.63
2019-02-07T17:04:27.894Z,98884.89
2019-02-07T17:06:59.002Z,98876.49
2019-02-07T17:09:30.638Z,98894.91
2019-02-07T17:12:01.102Z,98893.98
2019-02-07T17:14:30.318Z,98901.82
2019-02-07T17:17:00.650Z,98892.37
2019-02-07T17:19:30.284Z,98903.34
2019-02-07T17:21:59.392Z,98902.27
2019-02-07T17:24:28.548Z,98900.33
2019-02-07T17:26:59.969Z,98905.13
2019-02-07T17:29:29.426Z,98915.36
2019-02-07T17:32:00.611Z,98912.41
2019-02-07T17:34:32.608Z,98915.45
2019-02-07T17:37:03.341Z,98919.41
2019-02-07T17:39:33.000Z,98914.18
2019-02-07T17:42:02.445Z,98924.34
2019-02-07T17:44:32.721Z,98927.05
2019-02-07T17:47:01.870Z,98926.35
2019-02-07T17:49:31.105Z,98928.89
2019-02-07T17:52:00.294Z,98934.15
2019-02-07T17:54:29.421Z,98932.92
2019-02-07T17:56:59.036Z,98933.55
2019-02-07T17:59:28.292Z,98928.53
2019-02-07T18:01:57.477Z,98934.05
2019-02-07T18:04:28.181Z,98949.04
2019-02-07T18:06:57.383Z,98956.97
2019-02-07T18:09:28.081Z,98954.59
2019-02-07T18:12:04.555Z,98957.75
2019-02-07T18:14:34.716Z,98962.25
2019-02-07T18:17:05.079Z,98975.21
2019-02-07T18:19:38.030Z,98976.95
2019-02-07T18:22:07.270Z,98976.16
2019-02-07T18:24:36.892Z,98976.35
2019-02-07T18:27:09.002Z,98979.14
2019-02-07T18:29:45.761Z,98983.09
2019-02-07T18:32:19.604Z,98992.66
2019-02-07T18:34:48.851Z,98997.77
2019-02-07T18:37:19.559Z,98999.78
2019-02-07T18:39:49.961Z,99005.77
2019-02-07T18:42:19.975Z,99000.83
2019-02-07T18:44:56.955Z,99004.97
2019-02-07T18:47:27.794Z,99017.24
2019-02-07T18:49:59.392Z,99015.67
2019-02-07T18:52:28.558Z,99007.33
2019-02-07T18:54:57.729Z,99016.47
2019-02-07T18:57:29.407Z,99024.25
2019-02-07T18:59:58.739Z,99018.92
2019-02-07T19:02:27.835Z,99017.05
2019-02-07T19:04:59.749Z,99022.14
2019-02-07T19:07:29.834Z,99022.59
2019-02-07T19:09:58.975Z,99019.86
2019-02-07T19:12:28.049Z,99017.83
2019-02-07T19:15:00.566Z,99016.87
2019-02-07T19:17:30.844Z,99018.64
2019-02-07T19:19:59.953Z,99019.16
2019-02-07T19:22:30.187Z,99020.68
2019-02-07T19:25:00.537Z,99019.70
2019-02-07T19:27:29.630Z,99030.38
2019-02-07T19:29:58.799Z,99025.73
2019-02-07T19:32:27.916Z,99029.06
2019-02-07T19:35:00.494Z,99033.76
2019-02-07T19:37:29.591Z,99034.55
2019-02-07T19:39:58.793Z,99033.66
2019-02-07T19:42:27.948Z,99035.57
2019-02-07T19:44:57.194Z,99038.27
2019-02-07T19:47:26.353Z,99030.94
2019-02-07T19:49:56.517Z,99029.05
2019-02-07T19:52:25.597Z,99030.07
2019-02-07T19:54:54.752Z,99032.05
2019-02-07T19:57:23.910Z,99039.22
2019-02-07T19:59:53.118Z,99045.95
2019-02-07T20:02:22.215Z,99044.58
2019-02-07T20:04:51.605Z,99053.84
2019-02-07T20:07:20.765Z,99052.89
2019-02-07T20:09:49.879Z,99062.37
2019-02-07T20:12:18.974Z,99065.31
2019-02-07T20:14:48.115Z,99059.20
2019-02-07T20:17:17.192Z,99058.48
2019-02-07T20:19:48.398Z,99056.64
2019-02-07T20:22:20.183Z,99053.52
2019-02-07T20:24:48.407Z,99064.84
2019-02-07T20:27:20.276Z,99067.17
2019-02-07T20:29:49.463Z,99070.02
2019-02-07T20:32:18.509Z,99072.80
2019-02-07T20:34:47.692Z,99076.83
2019-02-07T20:37:19.598Z,99073.39
2019-02-07T20:39:51.586Z,99078.55
2019-02-07T20:42:20.697Z,99074.06
2019-02-07T20:44:49.817Z,99075.20
2019-02-07T20:47:20.542Z,99081.03
2019-02-07T20:49:49.623Z,99081.95
2019-02-07T20:52:19.023Z,99082.90
2019-02-07T20:54:48.109Z,99087.34
2019-02-07T20:57:17.931Z,99082.99
2019-02-07T20:59:47.038Z,99088.92
2019-02-07T21:02:16.131Z,99087.52
2019-02-07T21:04:47.201Z,99087.11
2019-02-07T21:07:16.317Z,99081.00
2019-02-07T21:09:45.455Z,99087.06
2019-02-07T21:12:16.354Z,99086.43
2019-02-07T21:14:45.463Z,99090.34
2019-02-07T21:17:16.547Z,99093.92
2019-02-07T21:19:45.669Z,99097.23
2019-02-07T21:22:15.786Z,99099.31
2019-02-07T21:24:45.302Z,99108.09
2019-02-07T21:27:14.411Z,99111.73
2019-02-07T21:29:43.537Z,99110.24
2019-02-07T21:32:12.641Z,99117.95
2019-02-07T21:34:41.696Z,99120.98
2019-02-07T21:37:10.840Z,99119.48
2019-02-07T21:39:39.992Z,99119.17
2019-02-07T21:42:09.121Z,99128.05
2019-02-07T21:44:38.190Z,99134.81
2019-02-07T21:47:07.327Z,99132.42
2019-02-07T21:49:38.766Z,99138.99
2019-02-07T21:52:07.894Z,99143.08
2019-02-07T21:54:36.951Z,99146.29
2019-02-07T21:57:06.171Z,99153.72
2019-02-07T21:59:37.093Z,99158.72
2019-02-07T22:02:06.214Z,99148.52
2019-02-07T22:04:35.282Z,99151.59
2019-02-07T22:07:04.429Z,99149.33
2019-02-07T22:09:37.095Z,99155.31
2019-02-07T22:12:08.269Z,99134.99
2019-02-07T22:14:37.378Z,99170.05
2019-02-07T22:17:07.694Z,99166.42
2019-02-07T22:19:36.802Z,99168.69
2019-02-07T22:22:06.022Z,99166.42
2019-02-07T22:24:35.158Z,99173.54
2019-02-07T22:27:08.711Z,99170.41
2019-02-07T22:29:40.072Z,99174.91
2019-02-07T22:32:09.151Z,99175.12
2019-02-07T22:34:42.292Z,99180.70
2019-02-07T22:37:12.950Z,99181.16
2019-02-07T22:39:42.199Z,99187.73
2019-02-07T22:42:12.343Z,99181.30
2019-02-07T22:44:43.588Z,99192.13
2019-02-07T22:47:13.631Z,99197.94
2019-02-07T22:49:42.732Z,99191.73
2019-02-07T22:52:11.808Z,99190.47
2019-02-07T22:54:41.387Z,99188.06
2019-02-07T22:57:10.517Z,99185.88
2019-02-07T22:59:39.737Z,99183.02
2019-02-07T23:02:11.454Z,99190.94
2019-02-07T23:04:40.777Z,99191.31
2019-02-07T23:07:09.841Z,99185.02
2019-02-07T23:09:40.851Z,99186.27
2019-02-07T23:12:09.953Z,99196.33
2019-02-07T23:14:39.308Z,99198.69
2019-02-07T23:17:08.450Z,99203.05
2019-02-07T23:19:39.479Z,99200.67
2019-02-07T23:22:09.839Z,99204.80
2019-02-07T23:24:38.997Z,99204.86
2019-02-07T23:27:08.231Z,99209.20
2019-02-07T23:29:37.347Z,99214.09
2019-02-07T23:32:06.744Z,99212.12
2019-02-07T23:34:36.159Z,99208.78
2019-02-07T23:37:14.826Z,99212.70
2019-02-07T23:39:46.794Z,99204.05
2019-02-07T23:42:19.179Z,99208.09
2019-02-07T23:44:52.840Z,99206.94
2019-02-07T23:47:26.793Z,99213.17
2019-02-07T23:49:56.215Z,99218.92
2019-02-07T23:52:33.570Z,99206.45
2019-02-07T23:55:06.550Z,99206.41
2019-02-07T23:57:50.630Z,99205.01
